Погода Калундрана неделю

Квинсденд, Австралия

13 - 19 июля
  • 13июля
    Сегодня
    +10°
    +21°
    Ясно и безоблачно
    ВремяПогодаТемператураВлажностьДавлениеВетер, м/сВероятность осадков
    01:00Облачно с прояснениями+13°C76 %758 мм3.0 м/с5 %
    04:00Пасмурно, сплошная облачность+15°C65 %757 мм4.0 м/с7 %
    07:00Пасмурно, сплошная облачность+14°C75 %759 мм4.5 м/с9 %
    10:00Практически безоблачно+18°C61 %759 мм4.4 м/с46 %
    13:00Ясно и безоблачно+20°C48 %757 мм4.1 м/с2 %
    16:00Ясно и безоблачно+19°C50 %757 мм5.3 м/с5 %
    19:00Ясно и безоблачно+14°C63 %759 мм3.8 м/с3 %
    22:00Ясно и безоблачно+13°C66 %760 мм5.2 м/с5 %
  • 14июля
    Воскресенье
    +8°
    +20°
    Ясно и безоблачно
    ВремяПогодаТемператураВлажностьДавлениеВетер, м/сВероятность осадков
    01:00Ясно и безоблачно+12°C72 %759 мм5.7 м/с5 %
    04:00Ясно и безоблачно+11°C76 %759 мм5.2 м/с5 %
    07:00Ясно и безоблачно+10°C80 %760 мм4.8 м/с5 %
    10:00Облачно с прояснениями+15°C62 %760 мм4.0 м/с5 %
    13:00Ясно и безоблачно+19°C46 %758 мм3.4 м/с5 %
    16:00Облачно с прояснениями+19°C46 %758 мм3.2 м/с5 %
    19:00Облачно с прояснениями+13°C59 %759 мм3.1 м/с5 %
    22:00Ясно и безоблачно+12°C61 %760 мм3.9 м/с5 %
  • 15июля
    Понедельник
    +8°
    +19°
    Ясно и безоблачно
    ВремяПогодаТемператураВлажностьДавлениеВетер, м/сВероятность осадков
    01:00Ясно и безоблачно+11°C65 %759 мм4.3 м/с5 %
    04:00Ясно и безоблачно+10°C71 %759 мм3.3 м/с5 %
    07:00Ясно и безоблачно+9°C79 %760 мм3.5 м/с5 %
    10:00Ясно и безоблачно+14°C57 %760 мм4.1 м/с5 %
    13:00Ясно и безоблачно+18°C42 %758 мм3.7 м/с5 %
    16:00Ясно и безоблачно+18°C46 %757 мм4.2 м/с5 %
    19:00Ясно и безоблачно+12°C63 %759 мм3.5 м/с5 %
    22:00Ясно и безоблачно+11°C67 %760 мм3.5 м/с5 %
  • 16июля
    Вторник
    +7°
    +18°
    Облачно с прояснениями
    ВремяПогодаТемператураВлажностьДавлениеВетер, м/сВероятность осадков
    01:00Ясно и безоблачно+10°C76 %759 мм3.2 м/с5 %
    04:00Ясно и безоблачно+9°C82 %759 мм3.2 м/с5 %
    07:00Ясно и безоблачно+9°C82 %760 мм3.3 м/с5 %
    10:00Ясно и безоблачно+14°C59 %760 мм3.2 м/с5 %
    13:00Облачно с прояснениями+17°C40 %757 мм6.1 м/с5 %
    16:00Практически безоблачно+16°C44 %757 мм5.0 м/с5 %
    19:00Ясно и безоблачно+12°C61 %759 мм3.2 м/с5 %
    22:00Ясно и безоблачно+10°C72 %760 мм3.3 м/с5 %
  • 17июля
    Среда
    +8°
    +17°
    Ясно и безоблачно
    ВремяПогодаТемператураВлажностьДавлениеВетер, м/сВероятность осадков
    01:00Ясно и безоблачно+8°C76 %759 мм3.6 м/с5 %
    04:00Ясно и безоблачно+8°C74 %759 мм3.6 м/с5 %
    07:00Ясно и безоблачно+8°C78 %760 мм3.4 м/с5 %
    10:00Ясно и безоблачно+12°C56 %760 мм4.8 м/с5 %
    13:00Ясно и безоблачно+16°C42 %758 мм5.6 м/с5 %
    16:00Ясно и безоблачно+16°C46 %758 мм5.0 м/с5 %
    19:00Ясно и безоблачно+11°C59 %760 мм3.8 м/с5 %
    22:00Ясно и безоблачно+9°C71 %761 мм3.3 м/с5 %
Мы используем cookies
Соглашаюсь